Time;durP1;ratioP1;P1;durP2;ratioP2;P2;SDS_P1;SDS_P2;PMS_P1;PMS_P2;Temp;Humidity;BMP_temperature;BMP_pressure;BME280_temperature;BME280_humidity;BME280_pressure;Samples;Min_cycle;Max_cycle;Signal;HPM_P1;HPM_P2
2024/01/19 00:00:08;;;;;;;6.60;4.60;;;14.30;35.60;;;;;;5149338;27;46203;-49
2024/01/19 00:02:35;;;;;;;7.13;4.88;;;14.30;35.60;;;;;;5146613;27;44838;-49
2024/01/19 00:05:03;;;;;;;6.47;4.55;;;14.30;35.50;;;;;;5149816;27;45350;-48
2024/01/19 00:07:29;;;;;;;7.03;4.70;;;14.20;35.50;;;;;;5148355;27;45411;-49
2024/01/19 00:09:57;;;;;;;5.90;4.50;;;14.30;35.50;;;;;;5148426;27;45229;-49
2024/01/19 00:12:24;;;;;;;6.50;4.72;;;14.30;35.50;;;;;;5148471;27;45405;-49
2024/01/19 00:14:51;;;;;;;7.78;5.22;;;14.30;35.60;;;;;;5152179;27;46554;-49
2024/01/19 00:17:18;;;;;;;7.18;4.93;;;14.30;35.50;;;;;;5151443;27;45178;-48
2024/01/19 00:19:44;;;;;;;7.45;5.03;;;14.30;35.50;;;;;;5154291;27;45270;-48
2024/01/19 00:22:11;;;;;;;7.30;5.07;;;14.30;35.60;;;;;;5151326;27;44850;-49
2024/01/19 00:24:38;;;;;;;7.68;5.15;;;14.40;35.70;;;;;;5153350;27;47430;-48
2024/01/19 00:27:07;;;;;;;5.75;4.75;;;14.40;35.60;;;;;;5153349;27;45360;-49
2024/01/19 00:29:33;;;;;;;7.53;5.10;;;14.40;35.70;;;;;;5153774;27;45146;-48
2024/01/19 00:32:00;;;;;;;7.63;4.70;;;14.40;35.60;;;;;;5151422;27;45418;-48
2024/01/19 00:34:27;;;;;;;7.18;4.90;;;14.40;35.70;;;;;;5151207;27;45196;-48
2024/01/19 00:36:54;;;;;;;7.60;5.00;;;14.40;35.70;;;;;;5150822;27;44733;-48
2024/01/19 00:39:20;;;;;;;7.20;5.07;;;14.40;35.80;;;;;;5150943;27;45388;-48
2024/01/19 00:41:47;;;;;;;8.05;5.25;;;14.40;35.90;;;;;;5153249;27;45401;-48
2024/01/19 00:44:15;;;;;;;6.55;4.60;;;14.30;35.80;;;;;;5154103;27;46578;-48
2024/01/19 00:46:42;;;;;;;7.05;4.90;;;14.30;35.90;;;;;;5151879;27;45185;-48
2024/01/19 00:49:08;;;;;;;7.32;5.05;;;14.20;36.00;;;;;;5152708;27;44686;-48
2024/01/19 00:51:35;;;;;;;8.02;5.25;;;14.30;36.00;;;;;;5151142;27;45280;-48
2024/01/19 00:54:02;;;;;;;8.05;5.18;;;14.30;36.00;;;;;;5151806;27;45250;-48
2024/01/19 00:56:29;;;;;;;11.13;5.45;;;14.30;36.10;;;;;;5152166;27;45238;-48
2024/01/19 00:58:55;;;;;;;7.70;5.28;;;14.30;36.20;;;;;;5154026;27;45130;-49
2024/01/19 01:01:24;;;;;;;9.25;5.80;;;14.30;36.10;;;;;;5153238;27;45271;-48
2024/01/19 01:03:50;;;;;;;7.13;5.22;;;14.30;36.20;;;;;;5150677;27;45224;-49
2024/01/19 01:06:17;;;;;;;7.72;5.47;;;14.30;36.20;;;;;;5151227;27;45162;-48
2024/01/19 01:08:44;;;;;;;7.22;4.97;;;14.30;36.30;;;;;;5149487;27;45655;-49
2024/01/19 01:11:11;;;;;;;7.60;5.30;;;14.20;36.30;;;;;;5152433;27;44826;-49
2024/01/19 01:13:38;;;;;;;8.15;5.38;;;14.30;36.50;;;;;;5152244;27;46597;-48
2024/01/19 01:16:05;;;;;;;7.95;5.57;;;14.40;36.50;;;;;;5151380;27;45395;-49
2024/01/19 01:18:33;;;;;;;7.82;5.45;;;14.40;36.40;;;;;;5149990;27;45258;-49
2024/01/19 01:21:00;;;;;;;8.68;5.35;;;14.40;36.40;;;;;;5153465;27;45258;-48
2024/01/19 01:23:26;;;;;;;7.85;5.88;;;14.40;36.50;;;;;;5150465;27;45508;-49
2024/01/19 01:25:53;;;;;;;7.28;5.20;;;14.40;36.60;;;;;;5151080;27;45344;-49
2024/01/19 01:28:20;;;;;;;8.68;5.55;;;14.40;36.50;;;;;;5153841;27;45266;-48
2024/01/19 01:30:47;;;;;;;7.22;5.05;;;14.40;36.60;;;;;;5150900;27;45211;-49
2024/01/19 01:33:13;;;;;;;7.70;5.38;;;14.40;36.70;;;;;;5151044;27;46532;-49
2024/01/19 01:35:41;;;;;;;7.95;5.65;;;14.40;36.50;;;;;;5150032;27;45393;-49
2024/01/19 01:38:08;;;;;;;8.77;5.97;;;14.30;36.20;;;;;;5150840;27;45421;-49
2024/01/19 01:40:35;;;;;;;8.60;5.95;;;14.20;35.90;;;;;;5150713;27;44775;-49
2024/01/19 01:43:04;;;;;;;8.77;5.68;;;14.10;35.90;;;;;;5152222;27;46815;-49
2024/01/19 01:45:31;;;;;;;8.23;5.60;;;14.10;35.70;;;;;;5150018;27;45435;-49
2024/01/19 01:48:00;;;;;;;9.10;6.25;;;14.10;35.70;;;;;;5150627;27;45132;-49
2024/01/19 01:50:27;;;;;;;8.70;6.10;;;14.10;35.40;;;;;;5151719;27;45300;-49
2024/01/19 01:52:55;;;;;;;8.65;5.63;;;14.10;35.50;;;;;;5149554;27;45309;-49
2024/01/19 01:55:22;;;;;;;9.10;5.63;;;14.10;35.40;;;;;;5148526;27;45960;-49
2024/01/19 01:57:49;;;;;;;9.40;6.18;;;14.10;35.30;;;;;;5154956;27;45207;-49
2024/01/19 02:00:18;;;;;;;7.95;5.53;;;14.10;35.20;;;;;;5153893;27;45383;-49
2024/01/19 02:02:47;;;;;;;9.18;6.20;;;14.20;35.30;;;;;;5152748;27;45317;-49
2024/01/19 02:05:14;;;;;;;8.40;5.80;;;14.30;35.00;;;;;;5151296;27;45305;-49
2024/01/19 02:07:40;;;;;;;9.98;6.32;;;14.30;34.80;;;;;;5153181;27;45398;-49
2024/01/19 02:10:09;;;;;;;11.90;6.88;;;14.40;34.80;;;;;;5149541;27;45219;-49
2024/01/19 02:12:37;;;;;;;10.65;6.35;;;14.40;34.50;;;;;;5155100;27;48400;-49
2024/01/19 02:15:05;;;;;;;11.15;6.43;;;14.40;34.60;;;;;;5152310;27;44990;-49
2024/01/19 02:17:32;;;;;;;12.38;6.72;;;14.40;34.40;;;;;;5150204;27;45158;-49
2024/01/19 02:19:58;;;;;;;11.13;6.38;;;14.40;34.50;;;;;;5152749;27;45126;-49
2024/01/19 02:22:25;;;;;;;10.77;6.53;;;14.30;34.40;;;;;;5150819;27;46318;-49
2024/01/19 02:24:53;;;;;;;12.23;6.85;;;14.30;34.60;;;;;;5149968;27;45395;-49
2024/01/19 02:27:20;;;;;;;11.32;7.00;;;14.30;34.50;;;;;;5147260;27;45244;-49
2024/01/19 02:29:51;;;;;;;10.98;6.90;;;14.30;34.50;;;;;;5149530;27;45353;-49
2024/01/19 02:32:18;;;;;;;11.38;6.78;;;14.30;34.60;;;;;;5152603;27;45449;-49
2024/01/19 02:34:46;;;;;;;13.02;7.50;;;14.30;34.70;;;;;;5149929;27;45187;-49
2024/01/19 02:37:13;;;;;;;13.00;7.00;;;14.20;34.70;;;;;;5149480;27;45235;-49
2024/01/19 02:39:40;;;;;;;10.45;6.78;;;14.20;34.70;;;;;;5153651;27;45320;-49
2024/01/19 02:42:08;;;;;;;11.75;6.32;;;14.10;35.90;;;;;;5152127;27;46461;-49
2024/01/19 02:44:35;;;;;;;10.88;7.07;;;14.10;34.60;;;;;;5151071;27;45226;-49
2024/01/19 02:47:02;;;;;;;10.43;6.68;;;14.10;34.70;;;;;;5150857;27;44625;-49
2024/01/19 02:49:29;;;;;;;11.75;6.47;;;14.10;34.70;;;;;;5149815;27;45141;-49
2024/01/19 02:51:56;;;;;;;10.63;6.47;;;14.10;34.80;;;;;;5153976;27;45163;-49
2024/01/19 02:54:23;;;;;;;12.05;7.18;;;14.10;34.80;;;;;;5151895;27;45136;-49
2024/01/19 02:56:49;;;;;;;9.88;6.28;;;14.10;34.90;;;;;;5152794;27;45362;-49
2024/01/19 02:59:18;;;;;;;10.45;6.57;;;14.00;34.70;;;;;;5151550;27;44692;-49
2024/01/19 03:01:44;;;;;;;11.10;6.35;;;14.10;34.80;;;;;;5151138;27;47138;-49
2024/01/19 03:04:11;;;;;;;10.48;6.95;;;14.00;34.80;;;;;;5151007;27;45137;-49
2024/01/19 03:06:38;;;;;;;9.50;6.63;;;14.10;34.90;;;;;;5149052;27;45229;-49
2024/01/19 03:09:05;;;;;;;9.15;6.28;;;14.10;34.80;;;;;;5148971;27;45326;-49
2024/01/19 03:11:32;;;;;;;11.38;6.38;;;14.10;34.80;;;;;;5153245;27;47623;-49
2024/01/19 03:13:58;;;;;;;9.98;5.93;;;14.10;34.80;;;;;;5152739;27;44677;-48
2024/01/19 03:16:26;;;;;;;10.20;5.93;;;14.10;34.70;;;;;;5149625;27;45142;-49
2024/01/19 03:18:55;;;;;;;10.75;6.38;;;14.10;34.70;;;;;;5154282;27;45399;-49
2024/01/19 03:21:21;;;;;;;10.77;6.43;;;14.10;34.80;;;;;;5150133;27;47664;-49
2024/01/19 03:23:48;;;;;;;9.30;5.80;;;14.10;34.80;;;;;;5152892;27;45290;-49
2024/01/19 03:26:15;;;;;;;8.48;5.70;;;14.10;34.90;;;;;;5151291;27;45152;-49
2024/01/19 03:28:42;;;;;;;10.82;6.15;;;14.00;34.80;;;;;;5153399;27;45141;-48
2024/01/19 03:31:08;;;;;;;10.20;6.10;;;14.00;34.90;;;;;;5148521;27;45266;-49
2024/01/19 03:33:37;;;;;;;9.68;5.80;;;14.00;35.00;;;;;;5152213;27;45223;-49
2024/01/19 03:36:03;;;;;;;10.98;6.10;;;13.90;34.90;;;;;;5148746;27;45113;-49
2024/01/19 03:38:30;;;;;;;9.43;5.65;;;13.90;34.90;;;;;;5151982;27;45141;-48
2024/01/19 03:40:57;;;;;;;12.23;6.13;;;13.90;35.00;;;;;;5150875;27;45238;-49
2024/01/19 03:43:25;;;;;;;10.43;5.95;;;13.90;35.00;;;;;;5150902;27;45171;-49
2024/01/19 03:45:51;;;;;;;9.75;6.38;;;13.90;34.90;;;;;;5155023;27;45218;-49
2024/01/19 03:48:18;;;;;;;10.07;6.22;;;13.90;34.90;;;;;;5154745;27;45435;-49
2024/01/19 03:50:47;;;;;;;11.05;6.20;;;13.90;34.90;;;;;;5159641;27;45290;-49
2024/01/19 03:53:13;;;;;;;10.07;5.85;;;13.90;34.90;;;;;;5155464;27;45595;-49
2024/01/19 03:55:40;;;;;;;9.05;5.00;;;13.90;35.20;;;;;;5161417;27;44695;-49
2024/01/19 03:58:07;;;;;;;9.80;5.57;;;14.00;37.40;;;;;;5157746;27;45147;-49
2024/01/19 04:00:33;;;;;;;8.68;5.72;;;14.00;36.80;;;;;;5156579;27;45207;-49
2024/01/19 04:03:00;;;;;;;11.75;6.57;;;14.00;36.20;;;;;;5154560;27;45153;-49
2024/01/19 04:05:28;;;;;;;11.60;5.70;;;14.00;36.10;;;;;;5156923;27;45159;-49
2024/01/19 04:07:56;;;;;;;11.27;6.25;;;14.00;35.90;;;;;;5162722;27;45176;-49
2024/01/19 04:10:23;;;;;;;10.65;6.47;;;14.10;35.90;;;;;;5156871;27;47130;-49
2024/01/19 04:12:51;;;;;;;11.82;6.63;;;14.10;35.80;;;;;;5156689;27;45145;-49
2024/01/19 04:15:21;;;;;;;11.57;6.20;;;14.10;35.80;;;;;;5157835;27;45303;-48
2024/01/19 04:17:48;;;;;;;10.00;6.43;;;14.10;35.70;;;;;;5156285;27;45210;-49
2024/01/19 04:20:14;;;;;;;13.00;6.55;;;14.10;35.70;;;;;;5156388;27;46039;-49
2024/01/19 04:22:41;;;;;;;12.48;6.80;;;14.00;35.50;;;;;;5156424;27;45595;-49
2024/01/19 04:25:10;;;;;;;12.10;6.32;;;14.00;36.80;;;;;;5157632;27;45174;-49
2024/01/19 04:27:36;;;;;;;11.50;6.68;;;14.00;35.60;;;;;;5156109;27;45425;-49
2024/01/19 04:30:04;;;;;;;12.15;6.97;;;13.90;35.60;;;;;;5155183;27;46524;-49
2024/01/19 04:32:30;;;;;;;12.68;6.93;;;14.00;35.80;;;;;;5157036;27;46170;-49
2024/01/19 04:34:57;;;;;;;11.30;6.28;;;14.00;35.80;;;;;;5156863;27;44642;-49
2024/01/19 04:37:24;;;;;;;15.38;6.68;;;14.00;35.80;;;;;;5156235;27;45375;-49
2024/01/19 04:39:51;;;;;;;12.60;6.57;;;13.90;35.60;;;;;;5153732;27;45424;-49
2024/01/19 04:42:19;;;;;;;13.07;7.47;;;14.00;35.70;;;;;;5160324;27;45144;-49
2024/01/19 04:44:45;;;;;;;12.48;6.78;;;14.00;35.80;;;;;;5161943;27;45373;-49
2024/01/19 04:47:12;;;;;;;12.15;6.78;;;14.00;35.80;;;;;;5156148;27;45101;-49
2024/01/19 04:49:39;;;;;;;14.43;7.05;;;14.00;35.80;;;;;;5156556;27;45258;-48
2024/01/19 04:52:06;;;;;;;13.15;6.43;;;14.00;35.80;;;;;;5159472;27;45201;-49
2024/01/19 04:54:33;;;;;;;11.70;6.57;;;14.00;35.80;;;;;;5154971;27;45153;-49
2024/01/19 04:56:59;;;;;;;11.85;7.00;;;14.00;35.80;;;;;;5154940;27;45209;-49
2024/01/19 04:59:27;;;;;;;11.93;6.18;;;14.00;35.90;;;;;;5158855;27;45245;-48
2024/01/19 05:01:54;;;;;;;12.20;6.55;;;14.00;35.80;;;;;;5152489;27;45189;-48
2024/01/19 05:04:22;;;;;;;10.75;6.20;;;14.00;35.90;;;;;;5153726;27;45193;-48
2024/01/19 05:06:49;;;;;;;10.50;5.80;;;14.00;35.80;;;;;;5154987;27;45265;-48
2024/01/19 05:09:15;;;;;;;12.00;6.15;;;14.10;35.80;;;;;;5151887;27;46550;-49
2024/01/19 05:11:42;;;;;;;11.75;6.45;;;14.10;35.80;;;;;;5151878;27;45100;-49
2024/01/19 05:14:09;;;;;;;9.45;5.82;;;14.10;35.80;;;;;;5152544;27;45117;-49
2024/01/19 05:16:37;;;;;;;10.38;5.78;;;14.10;35.70;;;;;;5154303;27;45356;-49
2024/01/19 05:19:04;;;;;;;9.38;5.30;;;14.10;35.80;;;;;;5154701;27;46566;-49
2024/01/19 05:21:31;;;;;;;10.30;5.07;;;14.10;35.80;;;;;;5151876;27;45126;-49
2024/01/19 05:23:58;;;;;;;9.73;5.57;;;14.00;35.80;;;;;;5152760;27;45116;-49
2024/01/19 05:26:26;;;;;;;11.43;5.72;;;14.00;35.80;;;;;;5152675;27;45146;-49
2024/01/19 05:28:52;;;;;;;9.73;5.10;;;14.00;35.70;;;;;;5152037;27;45371;-49
2024/01/19 05:31:19;;;;;;;7.80;5.10;;;14.00;35.70;;;;;;5152675;27;45280;-49
2024/01/19 05:33:47;;;;;;;10.23;5.40;;;14.00;35.80;;;;;;5153362;27;45175;-49
2024/01/19 05:36:14;;;;;;;10.90;5.50;;;14.00;35.70;;;;;;5152258;27;45365;-49
2024/01/19 05:38:41;;;;;;;8.70;5.38;;;14.00;35.70;;;;;;5150305;27;45270;-48
2024/01/19 05:41:08;;;;;;;9.02;4.70;;;14.00;35.90;;;;;;5151482;27;45163;-49
2024/01/19 05:43:34;;;;;;;10.45;4.63;;;14.00;35.80;;;;;;5152577;27;45117;-49
2024/01/19 05:46:01;;;;;;;8.90;4.70;;;14.00;36.60;;;;;;5151977;27;45131;-49
2024/01/19 05:48:28;;;;;;;11.07;5.25;;;14.00;36.40;;;;;;5151643;27;45244;-49
2024/01/19 05:50:56;;;;;;;9.68;5.38;;;14.00;36.30;;;;;;5152619;27;45465;-49
2024/01/19 05:53:23;;;;;;;8.25;4.75;;;14.00;36.40;;;;;;5153293;27;45196;-49
2024/01/19 05:55:50;;;;;;;6.85;4.47;;;13.90;36.20;;;;;;5150084;27;45164;-49
2024/01/19 05:58:16;;;;;;;9.65;5.20;;;14.00;36.20;;;;;;5153191;27;47237;-49
2024/01/19 06:00:43;;;;;;;9.30;5.18;;;14.00;36.20;;;;;;5151449;27;45261;-49
2024/01/19 06:03:10;;;;;;;10.23;5.80;;;14.00;36.10;;;;;;5156417;27;44726;-49
2024/01/19 06:05:37;;;;;;;9.10;5.30;;;14.00;36.00;;;;;;5149300;27;45181;-49
2024/01/19 06:08:05;;;;;;;6.97;4.55;;;14.00;35.90;;;;;;5153403;27;45326;-49
2024/01/19 06:10:32;;;;;;;8.30;4.78;;;14.00;35.80;;;;;;5152069;27;45119;-49
2024/01/19 06:12:59;;;;;;;9.10;4.85;;;14.10;36.00;;;;;;5149833;27;45114;-49
2024/01/19 06:15:26;;;;;;;6.00;4.40;;;14.00;35.80;;;;;;5152757;27;44701;-49
2024/01/19 06:17:53;;;;;;;8.23;4.65;;;14.00;35.90;;;;;;5154942;27;45404;-49
2024/01/19 06:20:19;;;;;;;8.50;4.72;;;14.00;35.80;;;;;;5151144;27;45157;-49
2024/01/19 06:22:46;;;;;;;7.10;4.85;;;14.00;35.80;;;;;;5153889;27;45553;-49
2024/01/19 06:25:15;;;;;;;8.18;4.60;;;14.00;35.70;;;;;;5152629;27;45159;-49
2024/01/19 06:27:41;;;;;;;9.48;4.90;;;14.00;35.60;;;;;;5148886;27;46406;-49
2024/01/19 06:30:09;;;;;;;8.68;4.85;;;14.00;35.80;;;;;;5150976;27;45228;-49
2024/01/19 06:32:36;;;;;;;8.32;4.78;;;14.00;35.60;;;;;;5152088;27;45157;-49
2024/01/19 06:35:03;;;;;;;8.10;4.57;;;14.00;35.60;;;;;;5150767;27;45183;-49
2024/01/19 06:37:30;;;;;;;7.07;4.60;;;14.00;35.60;;;;;;5149465;27;46757;-49
2024/01/19 06:39:56;;;;;;;7.53;4.38;;;14.00;35.50;;;;;;5150809;27;45344;-48
2024/01/19 06:42:24;;;;;;;7.28;4.50;;;13.90;35.50;;;;;;5151444;27;45215;-48
2024/01/19 06:44:51;;;;;;;6.60;4.30;;;14.00;35.40;;;;;;5154484;27;45356;-48
2024/01/19 06:47:19;;;;;;;8.77;4.93;;;13.90;35.20;;;;;;5150433;27;45176;-48
2024/01/19 06:49:47;;;;;;;7.72;4.57;;;13.90;35.30;;;;;;5154781;27;45307;-48
2024/01/19 06:52:14;;;;;;;6.63;4.25;;;13.90;35.30;;;;;;5149556;27;45223;-49
2024/01/19 06:54:41;;;;;;;8.93;4.82;;;13.90;35.20;;;;;;5148052;27;45227;-49
2024/01/19 06:57:08;;;;;;;8.15;5.03;;;13.90;35.20;;;;;;5151953;27;48270;-49
2024/01/19 06:59:36;;;;;;;7.18;5.00;;;13.90;35.20;;;;;;5148640;27;45344;-48
2024/01/19 07:02:04;;;;;;;8.30;4.93;;;14.00;35.30;;;;;;5151306;27;45249;-48
2024/01/19 07:04:31;;;;;;;7.80;4.53;;;14.00;35.20;;;;;;5148943;27;45432;-49
2024/01/19 07:06:58;;;;;;;10.20;4.80;;;14.00;35.20;;;;;;5153300;27;45290;-49
2024/01/19 07:09:26;;;;;;;6.80;4.03;;;13.90;35.10;;;;;;5149317;27;45246;-49
2024/01/19 07:11:53;;;;;;;7.15;4.50;;;13.90;35.00;;;;;;5148542;27;45310;-49
2024/01/19 07:14:20;;;;;;;8.55;5.07;;;13.90;35.10;;;;;;5152469;27;45240;-49
2024/01/19 07:16:48;;;;;;;8.95;5.15;;;14.00;36.30;;;;;;5154137;27;45286;-49
2024/01/19 07:19:14;;;;;;;10.10;4.85;;;14.00;35.10;;;;;;5153099;27;45161;-49
2024/01/19 07:21:42;;;;;;;8.75;4.75;;;13.90;34.90;;;;;;5148697;27;45192;-49
2024/01/19 07:24:11;;;;;;;9.55;5.32;;;13.90;35.00;;;;;;5152484;27;45472;-49
2024/01/19 07:26:38;;;;;;;8.68;5.15;;;13.90;35.00;;;;;;5149668;27;45433;-49
2024/01/19 07:29:06;;;;;;;8.38;4.70;;;13.90;34.80;;;;;;5148147;27;45346;-49
2024/01/19 07:31:33;;;;;;;8.52;4.85;;;13.90;34.90;;;;;;5155196;27;45255;-49
2024/01/19 07:34:01;;;;;;;8.57;4.75;;;13.90;34.90;;;;;;5152016;27;44788;-49
2024/01/19 07:36:28;;;;;;;9.40;5.32;;;13.90;34.90;;;;;;5149448;27;47100;-49
2024/01/19 07:38:55;;;;;;;10.60;5.78;;;13.90;34.80;;;;;;5151091;27;45176;-49
2024/01/19 07:41:22;;;;;;;9.77;5.70;;;13.90;34.70;;;;;;5151710;27;45225;-49
2024/01/19 07:43:49;;;;;;;8.00;5.45;;;14.00;34.80;;;;;;5151449;27;45253;-49
2024/01/19 07:46:16;;;;;;;8.95;5.03;;;13.90;34.70;;;;;;5153380;27;45337;-49
2024/01/19 07:48:43;;;;;;;9.30;5.30;;;14.00;34.90;;;;;;5149467;27;45041;-49
2024/01/19 07:51:11;;;;;;;8.57;4.95;;;13.90;34.70;;;;;;5150801;27;45296;-49
2024/01/19 07:53:38;;;;;;;7.78;5.18;;;14.00;34.80;;;;;;5149610;27;45429;-49
2024/01/19 07:56:06;;;;;;;8.73;5.38;;;14.00;34.80;;;;;;5148608;27;46528;-49
2024/01/19 07:58:33;;;;;;;9.32;5.40;;;14.00;34.50;;;;;;5148671;27;45372;-49
2024/01/19 08:00:59;;;;;;;8.70;5.03;;;14.00;34.50;;;;;;5149375;27;45365;-49
2024/01/19 08:03:26;;;;;;;9.02;5.03;;;14.00;34.40;;;;;;5148936;27;45339;-49
2024/01/19 08:05:53;;;;;;;8.80;4.72;;;14.00;34.60;;;;;;5150104;27;45260;-48
2024/01/19 08:08:22;;;;;;;7.28;4.85;;;14.00;35.00;;;;;;5149501;27;45325;-49
2024/01/19 08:10:48;;;;;;;8.07;4.97;;;14.00;35.10;;;;;;5148500;27;45192;-49
2024/01/19 08:13:15;;;;;;;9.57;5.47;;;13.90;35.30;;;;;;5150418;27;45671;-48
2024/01/19 08:15:42;;;;;;;10.82;5.90;;;13.90;35.50;;;;;;5148577;27;46026;-49
2024/01/19 08:18:09;;;;;;;9.70;5.45;;;13.90;35.50;;;;;;5147776;27;44806;-49
2024/01/19 08:20:36;;;;;;;9.23;5.28;;;14.00;35.40;;;;;;5152173;27;45230;-48
2024/01/19 08:23:03;;;;;;;9.60;5.10;;;14.10;35.10;;;;;;5150397;27;45133;-49
2024/01/19 08:25:31;;;;;;;9.00;5.40;;;14.10;35.20;;;;;;5148751;27;47431;-48
2024/01/19 08:28:00;;;;;;;10.48;5.32;;;14.20;35.00;;;;;;5150958;27;45209;-48
2024/01/19 08:30:27;;;;;;;8.57;5.28;;;14.30;34.90;;;;;;5149081;27;45178;-48
2024/01/19 08:32:54;;;;;;;8.77;5.15;;;14.20;34.70;;;;;;5146470;27;45434;-48
2024/01/19 08:35:22;;;;;;;11.88;6.25;;;14.20;34.70;;;;;;5149692;27;48722;-49
2024/01/19 08:37:48;;;;;;;10.77;5.72;;;14.20;34.70;;;;;;5151284;27;45296;-49
2024/01/19 08:40:15;;;;;;;10.82;5.70;;;14.10;34.50;;;;;;5152046;27;45245;-48
2024/01/19 08:42:43;;;;;;;8.98;5.55;;;14.10;34.60;;;;;;5152138;27;45339;-48
2024/01/19 08:45:10;;;;;;;10.27;5.70;;;14.10;34.60;;;;;;5154423;27;45197;-49
2024/01/19 08:47:37;;;;;;;8.60;5.57;;;14.10;34.60;;;;;;5154371;27;45322;-48
2024/01/19 08:50:06;;;;;;;10.27;5.93;;;14.10;34.60;;;;;;5151763;27;45227;-49
2024/01/19 08:52:33;;;;;;;9.45;5.72;;;14.10;34.50;;;;;;5155506;27;45097;-49
2024/01/19 08:55:00;;;;;;;9.50;5.97;;;14.10;34.60;;;;;;5150528;27;46030;-49
2024/01/19 08:57:26;;;;;;;9.63;6.15;;;14.00;34.40;;;;;;5153979;27;45224;-49
2024/01/19 08:59:55;;;;;;;9.50;5.78;;;14.00;34.40;;;;;;5155166;27;45204;-49
2024/01/19 09:02:21;;;;;;;10.20;5.78;;;14.00;34.40;;;;;;5157471;27;45323;-48
2024/01/19 09:04:48;;;;;;;10.55;6.32;;;14.00;34.40;;;;;;5152174;27;47113;-49
2024/01/19 09:07:15;;;;;;;9.90;5.75;;;14.00;34.40;;;;;;5150622;27;45452;-49
2024/01/19 09:09:42;;;;;;;9.80;6.15;;;13.90;34.30;;;;;;5149774;27;45144;-48
2024/01/19 09:12:08;;;;;;;9.65;5.78;;;14.00;35.50;;;;;;5155763;27;45404;-48
2024/01/19 09:14:35;;;;;;;9.18;4.80;;;14.10;34.50;;;;;;5149332;27;46532;-48
2024/01/19 09:17:04;;;;;;;9.10;4.20;;;14.30;37.20;;;;;;5151457;27;46337;-48
2024/01/19 09:19:31;;;;;;;9.00;4.60;;;14.50;37.30;;;;;;5152956;27;44688;-48
2024/01/19 09:21:57;;;;;;;10.32;5.47;;;14.70;37.60;;;;;;5155365;27;45597;-48
2024/01/19 09:24:25;;;;;;;9.35;5.53;;;14.70;36.00;;;;;;5151880;27;45283;-48
2024/01/19 09:26:54;;;;;;;10.95;5.40;;;14.60;36.60;;;;;;5155403;27;45212;-49
2024/01/19 09:29:20;;;;;;;9.88;5.47;;;14.50;35.30;;;;;;5152791;27;45322;-48
2024/01/19 09:31:48;;;;;;;10.38;5.25;;;14.30;35.50;;;;;;5146810;27;45282;-48
2024/01/19 09:34:16;;;;;;;9.82;5.55;;;14.30;35.50;;;;;;5151053;27;46749;-48
2024/01/19 09:36:43;;;;;;;9.60;5.68;;;14.20;35.50;;;;;;5150235;27;45190;-48
2024/01/19 09:39:10;;;;;;;8.95;5.60;;;14.10;35.30;;;;;;5150956;27;45270;-48
2024/01/19 09:41:39;;;;;;;12.05;6.30;;;14.10;35.30;;;;;;5152686;27;45580;-48
2024/01/19 09:44:08;;;;;;;9.50;5.85;;;14.10;35.40;;;;;;5154734;27;47278;-48
2024/01/19 09:46:44;;;;;;;10.07;5.88;;;14.10;35.30;;;;;;5149794;27;45577;-48
2024/01/19 09:49:24;;;;;;;10.80;6.07;;;14.10;35.20;;;;;;5153714;27;46038;-48
2024/01/19 09:51:57;;;;;;;9.52;5.88;;;14.00;35.10;;;;;;5154832;27;45269;-48
2024/01/19 09:54:29;;;;;;;8.70;5.30;;;14.10;35.30;;;;;;5148113;27;46281;-48
2024/01/19 09:56:56;;;;;;;10.10;6.22;;;14.00;35.10;;;;;;5155336;27;45105;-48
2024/01/19 09:59:24;;;;;;;13.35;7.00;;;14.00;36.10;;;;;;5151779;27;45121;-49
2024/01/19 10:01:53;;;;;;;11.32;6.38;;;14.00;35.10;;;;;;5150097;27;45462;-48
2024/01/19 10:04:22;;;;;;;12.07;6.53;;;14.00;35.20;;;;;;5155700;27;45171;-48
2024/01/19 10:06:49;;;;;;;10.90;6.22;;;14.00;35.10;;;;;;5149762;27;45201;-48
2024/01/19 10:09:18;;;;;;;10.02;5.95;;;14.00;35.00;;;;;;5153835;27;45442;-49
2024/01/19 10:11:47;;;;;;;11.50;6.72;;;14.00;35.00;;;;;;5151380;27;45093;-48
2024/01/19 10:14:14;;;;;;;10.88;6.05;;;14.10;36.10;;;;;;5153670;27;45326;-49
2024/01/19 10:16:42;;;;;;;11.00;6.45;;;14.10;35.90;;;;;;5150414;27;45233;-48
2024/01/19 10:19:10;;;;;;;11.77;7.05;;;14.10;35.80;;;;;;5154008;27;45199;-48
2024/01/19 10:21:36;;;;;;;12.68;6.93;;;14.10;35.90;;;;;;5153259;27;45257;-48
2024/01/19 10:24:10;;;;;;;12.20;6.95;;;14.00;35.70;;;;;;5154555;27;46357;-48
2024/01/19 10:26:39;;;;;;;11.27;6.38;;;14.00;35.70;;;;;;5151056;27;45349;-48
2024/01/19 10:29:13;;;;;;;11.95;7.07;;;14.00;35.70;;;;;;5154988;27;45244;-49
2024/01/19 10:31:40;;;;;;;13.65;6.85;;;14.10;35.80;;;;;;5151239;27;45288;-49
2024/01/19 10:34:17;;;;;;;11.02;6.43;;;14.10;35.60;;;;;;5150443;27;46516;-49
2024/01/19 10:36:45;;;;;;;13.40;6.50;;;14.20;35.40;;;;;;5151889;27;45214;-49
2024/01/19 10:39:19;;;;;;;12.52;6.97;;;14.30;35.30;;;;;;5155297;27;45420;-50
2024/01/19 10:41:47;;;;;;;11.45;6.97;;;14.30;35.10;;;;;;5146872;27;45235;-48
2024/01/19 10:44:16;;;;;;;11.73;6.38;;;14.40;35.10;;;;;;5152722;27;47400;-48
2024/01/19 10:46:44;;;;;;;9.88;6.20;;;14.40;35.10;;;;;;5148230;27;45126;-48
2024/01/19 10:49:12;;;;;;;9.77;5.30;;;14.30;34.90;;;;;;5152234;27;45184;-48
2024/01/19 10:51:40;;;;;;;12.52;6.45;;;14.30;35.00;;;;;;5150006;27;46050;-48
2024/01/19 10:54:07;;;;;;;13.27;6.75;;;14.20;35.10;;;;;;5151272;27;46684;-48
2024/01/19 10:56:34;;;;;;;12.68;6.55;;;14.20;35.10;;;;;;5148475;27;45227;-48
2024/01/19 10:59:12;;;;;;;11.52;6.10;;;14.20;35.20;;;;;;5154019;27;45174;-48
2024/01/19 11:01:39;;;;;;;12.07;6.68;;;14.20;35.10;;;;;;5148960;27;45272;-49
2024/01/19 11:04:08;;;;;;;9.98;5.97;;;14.30;35.00;;;;;;5150247;27;44974;-48
2024/01/19 11:06:37;;;;;;;10.40;6.50;;;14.30;34.90;;;;;;5148601;27;45236;-49
2024/01/19 11:09:05;;;;;;;14.75;7.20;;;14.30;34.80;;;;;;5143139;27;45200;-49
2024/01/19 11:11:36;;;;;;;10.52;6.10;;;14.30;34.80;;;;;;5150702;27;45354;-49
2024/01/19 11:14:07;;;;;;;11.25;6.18;;;14.30;34.80;;;;;;5153749;27;45348;-48
2024/01/19 11:16:41;;;;;;;11.35;6.05;;;14.30;34.80;;;;;;5148750;27;45441;-48
2024/01/19 11:19:09;;;;;;;11.38;6.25;;;14.30;34.80;;;;;;5149635;27;45163;-48
2024/01/19 11:21:36;;;;;;;12.15;6.35;;;14.30;34.80;;;;;;5152571;27;45302;-48
2024/01/19 11:24:05;;;;;;;9.90;6.05;;;14.20;34.90;;;;;;5148300;27;46286;-48
2024/01/19 11:26:36;;;;;;;10.23;6.30;;;14.30;34.90;;;;;;5149674;27;45152;-48
2024/01/19 11:29:15;;;;;;;12.88;6.82;;;14.30;35.00;;;;;;5151792;27;45290;-48
2024/01/19 11:31:44;;;;;;;8.18;5.43;;;14.30;34.90;;;;;;5148881;27;45316;-48
2024/01/19 11:34:43;;;;;;;10.93;5.93;;;14.30;35.00;;;;;;5149481;27;45288;-48
2024/01/19 11:37:30;;;;;;;12.15;6.25;;;14.20;34.80;;;;;;5145560;27;45405;-48
2024/01/19 11:39:57;;;;;;;9.52;6.10;;;14.20;35.10;;;;;;5145450;27;45216;-48
2024/01/19 11:42:45;;;;;;;10.38;6.13;;;14.20;35.30;;;;;;5148649;27;45167;-48
2024/01/19 11:45:38;;;;;;;14.05;6.10;;;14.10;35.30;;;;;;5147053;27;48377;-48
2024/01/19 11:48:07;;;;;;;11.30;6.03;;;14.10;35.20;;;;;;5148325;27;45325;-48
2024/01/19 11:50:41;;;;;;;9.82;5.97;;;14.10;35.20;;;;;;5146541;27;45479;-48
2024/01/19 11:53:08;;;;;;;11.02;5.90;;;14.10;35.40;;;;;;5148990;27;44744;-48
2024/01/19 11:55:35;;;;;;;9.98;6.07;;;14.10;36.20;;;;;;5150456;27;45459;-48
2024/01/19 11:58:30;;;;;;;8.75;6.00;;;14.10;36.20;;;;;;5147936;27;45699;-48
2024/01/19 12:00:57;;;;;;;11.40;6.38;;;14.10;35.90;;;;;;5152615;27;45267;-48
2024/01/19 12:03:26;;;;;;;10.32;6.45;;;14.00;35.60;;;;;;5149185;27;45117;-48
2024/01/19 12:05:56;;;;;;;13.30;6.30;;;14.00;35.50;;;;;;5149551;27;45249;-48
2024/01/19 12:08:23;;;;;;;11.85;6.95;;;14.00;35.20;;;;;;5150303;27;45120;-48
2024/01/19 12:11:11;;;;;;;12.02;6.50;;;14.00;35.10;;;;;;5152990;27;45222;-48
2024/01/19 12:13:40;;;;;;;10.20;6.82;;;14.00;34.90;;;;;;5154174;27;45268;-48
2024/01/19 12:16:07;;;;;;;11.88;7.05;;;14.10;34.70;;;;;;5155904;27;46224;-49
2024/01/19 12:18:37;;;;;;;10.77;6.13;;;14.00;34.40;;;;;;5153021;27;45579;-48
2024/01/19 12:21:05;;;;;;;13.73;6.72;;;14.10;34.60;;;;;;5159384;27;45199;-48
2024/01/19 12:23:33;;;;;;;10.88;6.68;;;14.10;34.60;;;;;;5154435;27;45696;-49
2024/01/19 12:26:03;;;;;;;10.38;6.47;;;14.10;34.50;;;;;;5154176;27;46988;-49
2024/01/19 12:28:31;;;;;;;13.05;6.70;;;14.10;34.40;;;;;;5151777;27;45211;-49
2024/01/19 12:30:58;;;;;;;13.73;7.47;;;14.00;34.40;;;;;;5153134;27;45267;-49
2024/01/19 12:33:28;;;;;;;11.48;6.05;;;14.00;34.40;;;;;;5154849;27;44765;-48
2024/01/19 12:36:12;;;;;;;13.93;7.15;;;14.00;34.40;;;;;;5152209;27;45440;-49
2024/01/19 12:38:39;;;;;;;10.23;5.70;;;14.20;34.20;;;;;;5149128;27;45338;-49
2024/01/19 12:41:09;;;;;;;9.93;5.72;;;14.20;34.10;;;;;;5150512;27;45194;-48
2024/01/19 12:43:35;;;;;;;11.40;6.72;;;14.20;34.00;;;;;;5152344;27;45134;-48
2024/01/19 12:46:04;;;;;;;11.77;6.22;;;14.30;34.10;;;;;;5149272;27;46239;-49